sensor_id;sensor_type;location;lat;lon;timestamp;pressure;altitude;pressure_sealevel;temperature
62611;BMP280;48683;48.084;17.272;2022-08-27T00:02:10;99723.72;;;24.37
62611;BMP280;48683;48.084;17.272;2022-08-27T00:04:36;99737.38;;;24.26
62611;BMP280;48683;48.084;17.272;2022-08-27T00:07:03;99737.97;;;24.04
62611;BMP280;48683;48.084;17.272;2022-08-27T00:09:29;99754.41;;;23.73
62611;BMP280;48683;48.084;17.272;2022-08-27T00:11:55;99754.41;;;23.73
62611;BMP280;48683;48.084;17.272;2022-08-27T00:14:21;99746.06;;;23.87
62611;BMP280;48683;48.084;17.272;2022-08-27T00:16:47;99749.88;;;23.95
62611;BMP280;48683;48.084;17.272;2022-08-27T00:19:12;99753.34;;;23.96
62611;BMP280;48683;48.084;17.272;2022-08-27T00:21:38;99755.47;;;23.81
62611;BMP280;48683;48.084;17.272;2022-08-27T00:24:03;99766.16;;;23.79
62611;BMP280;48683;48.084;17.272;2022-08-27T00:26:29;99762.72;;;23.84
62611;BMP280;48683;48.084;17.272;2022-08-27T00:28:54;99759.69;;;23.76
62611;BMP280;48683;48.084;17.272;2022-08-27T00:31:20;99771.66;;;23.79
62611;BMP280;48683;48.084;17.272;2022-08-27T00:33:45;99756.31;;;23.61
62611;BMP280;48683;48.084;17.272;2022-08-27T00:36:11;99771.56;;;23.68
62611;BMP280;48683;48.084;17.272;2022-08-27T00:38:37;99768.06;;;23.67
62611;BMP280;48683;48.084;17.272;2022-08-27T00:41:06;99771.56;;;23.68
62611;BMP280;48683;48.084;17.272;2022-08-27T00:43:45;99767.81;;;23.65
62611;BMP280;48683;48.084;17.272;2022-08-27T00:46:45;99769.28;;;23.66
62611;BMP280;48683;48.084;17.272;2022-08-27T00:50:10;99763.66;;;23.75
62611;BMP280;48683;48.084;17.272;2022-08-27T00:52:27;99760.66;;;23.73
62611;BMP280;48683;48.084;17.272;2022-08-27T00:55:08;99756.72;;;23.80
62611;BMP280;48683;48.084;17.272;2022-08-27T00:57:37;99754.91;;;23.71
62611;BMP280;48683;48.084;17.272;2022-08-27T01:00:05;99754.41;;;23.73
62611;BMP280;48683;48.084;17.272;2022-08-27T01:02:31;99748.19;;;23.72
62611;BMP280;48683;48.084;17.272;2022-08-27T01:05:01;99742.16;;;23.68
62611;BMP280;48683;48.084;17.272;2022-08-27T01:07:29;99748.66;;;23.71
62611;BMP280;48683;48.084;17.272;2022-08-27T01:09:58;99739.44;;;23.68
62611;BMP280;48683;48.084;17.272;2022-08-27T01:12:24;99751.38;;;23.65
62611;BMP280;48683;48.084;17.272;2022-08-27T01:14:49;99739.13;;;23.60
62611;BMP280;48683;48.084;17.272;2022-08-27T01:17:15;99745.34;;;23.61
62611;BMP280;48683;48.084;17.272;2022-08-27T01:19:48;99750.09;;;23.66
62611;BMP280;48683;48.084;17.272;2022-08-27T01:22:34;99748.63;;;23.65
62611;BMP280;48683;48.084;17.272;2022-08-27T01:25:08;99745.88;;;23.65
62611;BMP280;48683;48.084;17.272;2022-08-27T01:27:34;99752.81;;;23.60
62611;BMP280;48683;48.084;17.272;2022-08-27T01:30:00;99752.81;;;23.60
62611;BMP280;48683;48.084;17.272;2022-08-27T01:32:30;99735.25;;;23.47
62611;BMP280;48683;48.084;17.272;2022-08-27T01:34:56;99737.22;;;23.46
62611;BMP280;48683;48.084;17.272;2022-08-27T01:37:24;99736.97;;;23.44
62611;BMP280;48683;48.084;17.272;2022-08-27T01:39:51;99739.28;;;23.51
62611;BMP280;48683;48.084;17.272;2022-08-27T01:42:21;99744.75;;;23.51
62611;BMP280;48683;48.084;17.272;2022-08-27T01:44:52;99741.53;;;23.53
62611;BMP280;48683;48.084;17.272;2022-08-27T01:47:20;99731.28;;;23.48
62611;BMP280;48683;48.084;17.272;2022-08-27T01:49:46;99736.00;;;23.47
62611;BMP280;48683;48.084;17.272;2022-08-27T01:52:13;99743.53;;;23.52
62611;BMP280;48683;48.084;17.272;2022-08-27T01:54:39;99743.63;;;23.63
62611;BMP280;48683;48.084;17.272;2022-08-27T01:57:05;99745.81;;;23.59
62611;BMP280;48683;48.084;17.272;2022-08-27T01:59:31;99747.06;;;23.58
62611;BMP280;48683;48.084;17.272;2022-08-27T02:01:58;99751.31;;;23.59
62611;BMP280;48683;48.084;17.272;2022-08-27T02:04:24;99743.63;;;23.63
62611;BMP280;48683;48.084;17.272;2022-08-27T02:06:50;99748.31;;;23.57
62611;BMP280;48683;48.084;17.272;2022-08-27T02:09:15;99745.81;;;23.59
62611;BMP280;48683;48.084;17.272;2022-08-27T02:11:41;99741.81;;;23.55
62611;BMP280;48683;48.084;17.272;2022-08-27T02:14:06;99747.72;;;23.48
62611;BMP280;48683;48.084;17.272;2022-08-27T02:16:32;99756.81;;;23.39
62611;BMP280;48683;48.084;17.272;2022-08-27T02:18:58;99737.53;;;23.28
62611;BMP280;48683;48.084;17.272;2022-08-27T02:21:24;99742.00;;;23.26
62611;BMP280;48683;48.084;17.272;2022-08-27T02:23:50;99724.38;;;23.06
62611;BMP280;48683;48.084;17.272;2022-08-27T02:26:15;99731.84;;;23.06
62611;BMP280;48683;48.084;17.272;2022-08-27T02:28:41;99738.06;;;23.06
62611;BMP280;48683;48.084;17.272;2022-08-27T02:31:06;99734.53;;;23.26
62611;BMP280;48683;48.084;17.272;2022-08-27T02:33:32;99733.59;;;23.35
62611;BMP280;48683;48.084;17.272;2022-08-27T02:35:58;99745.44;;;23.46
62611;BMP280;48683;48.084;17.272;2022-08-27T02:38:23;99739.16;;;23.40
62611;BMP280;48683;48.084;17.272;2022-08-27T02:40:49;99749.03;;;23.32
62611;BMP280;48683;48.084;17.272;2022-08-27T02:43:14;99750.03;;;23.35
62611;BMP280;48683;48.084;17.272;2022-08-27T02:45:39;99749.91;;;23.44
62611;BMP280;48683;48.084;17.272;2022-08-27T02:48:05;99741.81;;;23.35
62611;BMP280;48683;48.084;17.272;2022-08-27T02:50:32;99753.28;;;23.33
62611;BMP280;48683;48.084;17.272;2022-08-27T02:53:03;99758.06;;;23.38
62611;BMP280;48683;48.084;17.272;2022-08-27T02:55:30;99753.88;;;23.43
62611;BMP280;48683;48.084;17.272;2022-08-27T02:57:55;99755.78;;;23.37
62611;BMP280;48683;48.084;17.272;2022-08-27T03:00:22;99762.91;;;23.49
62611;BMP280;48683;48.084;17.272;2022-08-27T03:02:48;99766.28;;;23.38
62611;BMP280;48683;48.084;17.272;2022-08-27T03:05:15;99766.28;;;23.38
62611;BMP280;48683;48.084;17.272;2022-08-27T03:07:41;99762.41;;;23.50
62611;BMP280;48683;48.084;17.272;2022-08-27T03:10:08;99756.63;;;23.43
62611;BMP280;48683;48.084;17.272;2022-08-27T03:12:33;99750.19;;;23.46
62611;BMP280;48683;48.084;17.272;2022-08-27T03:15:04;99754.19;;;23.25
62611;BMP280;48683;48.084;17.272;2022-08-27T03:17:30;99746.19;;;23.21
62611;BMP280;48683;48.084;17.272;2022-08-27T03:20:14;99768.25;;;23.38
62611;BMP280;48683;48.084;17.272;2022-08-27T03:22:39;99763.00;;;23.34
62611;BMP280;48683;48.084;17.272;2022-08-27T03:25:07;99762.72;;;23.32
62611;BMP280;48683;48.084;17.272;2022-08-27T03:27:32;99764.47;;;23.35
62611;BMP280;48683;48.084;17.272;2022-08-27T03:30:00;99758.84;;;23.18
62611;BMP280;48683;48.084;17.272;2022-08-27T03:32:26;99750.88;;;22.95
62611;BMP280;48683;48.084;17.272;2022-08-27T03:34:52;99762.91;;;23.03
62611;BMP280;48683;48.084;17.272;2022-08-27T03:37:17;99762.63;;;23.01
62611;BMP280;48683;48.084;17.272;2022-08-27T03:39:42;99755.84;;;22.96
62611;BMP280;48683;48.084;17.272;2022-08-27T03:42:08;99747.63;;;22.96
62611;BMP280;48683;48.084;17.272;2022-08-27T03:44:34;99751.81;;;22.92
62611;BMP280;48683;48.084;17.272;2022-08-27T03:46:59;99756.00;;;22.87
62611;BMP280;48683;48.084;17.272;2022-08-27T03:49:25;99751.69;;;22.81
62611;BMP280;48683;48.084;17.272;2022-08-27T03:51:51;99760.56;;;22.96
62611;BMP280;48683;48.084;17.272;2022-08-27T03:54:17;99755.16;;;23.01
62611;BMP280;48683;48.084;17.272;2022-08-27T03:56:42;99746.75;;;23.05
62611;BMP280;48683;48.084;17.272;2022-08-27T03:59:08;99751.59;;;23.15
62611;BMP280;48683;48.084;17.272;2022-08-27T04:01:33;99740.72;;;23.01
62611;BMP280;48683;48.084;17.272;2022-08-27T04:03:59;99737.44;;;22.97
62611;BMP280;48683;48.084;17.272;2022-08-27T04:06:24;99745.41;;;22.95
62611;BMP280;48683;48.084;17.272;2022-08-27T04:08:49;99737.19;;;22.95
62611;BMP280;48683;48.084;17.272;2022-08-27T04:11:15;99752.00;;;23.08
62611;BMP280;48683;48.084;17.272;2022-08-27T04:13:40;99740.84;;;23.12
62611;BMP280;48683;48.084;17.272;2022-08-27T04:16:06;99742.56;;;23.09
62611;BMP280;48683;48.084;17.272;2022-08-27T04:18:31;99757.22;;;23.06
62611;BMP280;48683;48.084;17.272;2022-08-27T04:20:57;99755.28;;;23.12
62611;BMP280;48683;48.084;17.272;2022-08-27T04:23:22;99765.56;;;23.17
62611;BMP280;48683;48.084;17.272;2022-08-27T04:25:48;99755.56;;;23.14
62611;BMP280;48683;48.084;17.272;2022-08-27T04:28:14;99752.16;;;22.99
62611;BMP280;48683;48.084;17.272;2022-08-27T04:30:45;99755.16;;;23.01
62611;BMP280;48683;48.084;17.272;2022-08-27T04:33:12;99768.03;;;22.95
62611;BMP280;48683;48.084;17.272;2022-08-27T04:35:38;99760.97;;;22.89
62611;BMP280;48683;48.084;17.272;2022-08-27T04:38:04;99769.41;;;22.85
62611;BMP280;48683;48.084;17.272;2022-08-27T04:40:29;99778.78;;;22.79
62611;BMP280;48683;48.084;17.272;2022-08-27T04:43:33;99789.66;;;22.93
62611;BMP280;48683;48.084;17.272;2022-08-27T04:45:58;99785.94;;;22.96
62611;BMP280;48683;48.084;17.272;2022-08-27T04:48:24;99784.13;;;22.88
62611;BMP280;48683;48.084;17.272;2022-08-27T04:50:50;99782.41;;;22.90
62611;BMP280;48683;48.084;17.272;2022-08-27T04:53:16;99777.75;;;22.96
62611;BMP280;48683;48.084;17.272;2022-08-27T04:56:00;99789.22;;;23.00
62611;BMP280;48683;48.084;17.272;2022-08-27T04:58:26;99774.78;;;23.00
62611;BMP280;48683;48.084;17.272;2022-08-27T05:00:54;99775.66;;;23.11
62611;BMP280;48683;48.084;17.272;2022-08-27T05:03:22;99782.41;;;23.10
62611;BMP280;48683;48.084;17.272;2022-08-27T05:05:48;99776.97;;;23.16
62611;BMP280;48683;48.084;17.272;2022-08-27T05:08:14;99781.22;;;23.17
62611;BMP280;48683;48.084;17.272;2022-08-27T05:10:47;99788.19;;;23.38
62611;BMP280;48683;48.084;17.272;2022-08-27T05:13:13;99791.41;;;23.37
62611;BMP280;48683;48.084;17.272;2022-08-27T05:15:39;99798.03;;;23.50
62611;BMP280;48683;48.084;17.272;2022-08-27T05:18:05;99788.69;;;23.62
62611;BMP280;48683;48.084;17.272;2022-08-27T05:20:32;99796.84;;;23.83
62611;BMP280;48683;48.084;17.272;2022-08-27T05:22:58;99796.84;;;23.83
62611;BMP280;48683;48.084;17.272;2022-08-27T05:25:24;99803.44;;;23.96
62611;BMP280;48683;48.084;17.272;2022-08-27T05:27:49;99800.72;;;24.02
62611;BMP280;48683;48.084;17.272;2022-08-27T05:30:15;99812.00;;;24.09
62611;BMP280;48683;48.084;17.272;2022-08-27T05:32:41;99820.00;;;24.13
62611;BMP280;48683;48.084;17.272;2022-08-27T05:35:07;99812.34;;;24.17
62611;BMP280;48683;48.084;17.272;2022-08-27T05:37:33;99809.00;;;24.07
62611;BMP280;48683;48.084;17.272;2022-08-27T05:40:00;99813.22;;;24.03
62611;BMP280;48683;48.084;17.272;2022-08-27T05:42:28;99815.63;;;23.95
62611;BMP280;48683;48.084;17.272;2022-08-27T05:44:53;99807.66;;;23.97
62611;BMP280;48683;48.084;17.272;2022-08-27T05:47:19;99817.69;;;24.00
62611;BMP280;48683;48.084;17.272;2022-08-27T05:49:45;99811.47;;;24.05
62611;BMP280;48683;48.084;17.272;2022-08-27T05:52:10;99815.25;;;24.08
62611;BMP280;48683;48.084;17.272;2022-08-27T05:54:36;99823.06;;;24.15
62611;BMP280;48683;48.084;17.272;2022-08-27T05:57:02;99806.16;;;24.22
62611;BMP280;48683;48.084;17.272;2022-08-27T05:59:28;99813.69;;;24.27
62611;BMP280;48683;48.084;17.272;2022-08-27T06:02:12;99804.19;;;24.28
62611;BMP280;48683;48.084;17.272;2022-08-27T06:04:37;99812.41;;;24.28
62611;BMP280;48683;48.084;17.272;2022-08-27T06:07:02;99813.91;;;24.24
62611;BMP280;48683;48.084;17.272;2022-08-27T06:09:28;99817.59;;;24.21
62611;BMP280;48683;48.084;17.272;2022-08-27T06:11:55;99830.81;;;24.22
62611;BMP280;48683;48.084;17.272;2022-08-27T06:14:21;99823.88;;;24.27
62611;BMP280;48683;48.084;17.272;2022-08-27T06:16:46;99828.13;;;24.28
62611;BMP280;48683;48.084;17.272;2022-08-27T06:19:13;99821.38;;;24.23
62611;BMP280;48683;48.084;17.272;2022-08-27T06:21:39;99823.19;;;24.32
62611;BMP280;48683;48.084;17.272;2022-08-27T06:24:05;99831.25;;;24.46
62611;BMP280;48683;48.084;17.272;2022-08-27T06:26:31;99819.81;;;24.53
62611;BMP280;48683;48.084;17.272;2022-08-27T06:29:01;99824.69;;;24.75
62611;BMP280;48683;48.084;17.272;2022-08-27T06:31:27;99817.31;;;24.92
62611;BMP280;48683;48.084;17.272;2022-08-27T06:33:57;99828.66;;;25.17
62611;BMP280;48683;48.084;17.272;2022-08-27T06:36:24;99823.44;;;25.30
62611;BMP280;48683;48.084;17.272;2022-08-27T06:38:49;99829.72;;;25.41
62611;BMP280;48683;48.084;17.272;2022-08-27T06:41:18;99814.91;;;25.17
62611;BMP280;48683;48.084;17.272;2022-08-27T06:43:44;99830.59;;;25.11
62611;BMP280;48683;48.084;17.272;2022-08-27T06:46:15;99837.38;;;25.10
62611;BMP280;48683;48.084;17.272;2022-08-27T06:48:42;99836.84;;;25.11
62611;BMP280;48683;48.084;17.272;2022-08-27T06:51:14;99831.34;;;25.06
62611;BMP280;48683;48.084;17.272;2022-08-27T06:53:42;99843.84;;;25.12
62611;BMP280;48683;48.084;17.272;2022-08-27T06:56:10;99828.16;;;25.24
62611;BMP280;48683;48.084;17.272;2022-08-27T06:58:35;99837.91;;;25.30
62611;BMP280;48683;48.084;17.272;2022-08-27T07:01:05;99827.72;;;25.42
62611;BMP280;48683;48.084;17.272;2022-08-27T07:03:35;99843.31;;;25.67
62611;BMP280;48683;48.084;17.272;2022-08-27T07:06:04;99847.84;;;25.98
62611;BMP280;48683;48.084;17.272;2022-08-27T07:08:30;99833.59;;;26.11
62611;BMP280;48683;48.084;17.272;2022-08-27T07:10:56;99849.56;;;26.51
62611;BMP280;48683;48.084;17.272;2022-08-27T07:13:21;99834.06;;;26.59
62611;BMP280;48683;48.084;17.272;2022-08-27T07:15:47;99834.06;;;26.54
62611;BMP280;48683;48.084;17.272;2022-08-27T07:18:12;99828.09;;;26.50
62611;BMP280;48683;48.084;17.272;2022-08-27T07:20:40;99845.31;;;26.56
62611;BMP280;48683;48.084;17.272;2022-08-27T07:23:05;99842.28;;;26.70
62611;BMP280;48683;48.084;17.272;2022-08-27T07:25:31;99837.78;;;26.73
62611;BMP280;48683;48.084;17.272;2022-08-27T07:27:57;99847.75;;;26.92
62611;BMP280;48683;48.084;17.272;2022-08-27T07:30:24;99839.47;;;26.92
62611;BMP280;48683;48.084;17.272;2022-08-27T07:32:50;99827.28;;;26.77
62611;BMP280;48683;48.084;17.272;2022-08-27T07:35:15;99839.25;;;26.79
62611;BMP280;48683;48.084;17.272;2022-08-27T07:37:41;99831.47;;;27.00
62611;BMP280;48683;48.084;17.272;2022-08-27T07:40:10;99828.06;;;27.29
62611;BMP280;48683;48.084;17.272;2022-08-27T07:42:36;99839.56;;;27.39
62611;BMP280;48683;48.084;17.272;2022-08-27T07:45:21;99831.19;;;27.56
62611;BMP280;48683;48.084;17.272;2022-08-27T07:47:46;99823.78;;;27.34
62611;BMP280;48683;48.084;17.272;2022-08-27T07:50:12;99834.75;;;27.45
62611;BMP280;48683;48.084;17.272;2022-08-27T07:52:38;99822.09;;;27.20
62611;BMP280;48683;48.084;17.272;2022-08-27T07:55:03;99828.59;;;27.22
62611;BMP280;48683;48.084;17.272;2022-08-27T07:57:30;99839.25;;;27.48
62611;BMP280;48683;48.084;17.272;2022-08-27T07:59:55;99831.19;;;27.56
62611;BMP280;48683;48.084;17.272;2022-08-27T08:02:20;99843.72;;;27.57
62611;BMP280;48683;48.084;17.272;2022-08-27T08:04:46;99828.97;;;27.54
62611;BMP280;48683;48.084;17.272;2022-08-27T08:07:11;99844.41;;;27.68
62611;BMP280;48683;48.084;17.272;2022-08-27T08:09:37;99841.72;;;27.57
62611;BMP280;48683;48.084;17.272;2022-08-27T08:12:02;99841.94;;;27.59
62611;BMP280;48683;48.084;17.272;2022-08-27T08:14:29;99854.47;;;27.66
62611;BMP280;48683;48.084;17.272;2022-08-27T08:16:59;99850.63;;;27.74
62611;BMP280;48683;48.084;17.272;2022-08-27T08:19:25;99852.84;;;27.81
62611;BMP280;48683;48.084;17.272;2022-08-27T08:21:51;99844.53;;;27.87
62611;BMP280;48683;48.084;17.272;2022-08-27T08:24:18;99845.44;;;28.01
62611;BMP280;48683;48.084;17.272;2022-08-27T08:26:43;99840.06;;;28.14
62611;BMP280;48683;48.084;17.272;2022-08-27T08:29:09;99842.31;;;28.15
62611;BMP280;48683;48.084;17.272;2022-08-27T08:31:35;99842.31;;;28.15
62611;BMP280;48683;48.084;17.272;2022-08-27T08:34:00;99836.16;;;28.58
62611;BMP280;48683;48.084;17.272;2022-08-27T08:36:26;99836.81;;;28.69
62611;BMP280;48683;48.084;17.272;2022-08-27T08:38:53;99844.59;;;28.71
62611;BMP280;48683;48.084;17.272;2022-08-27T08:41:29;99839.44;;;28.81
62611;BMP280;48683;48.084;17.272;2022-08-27T08:43:58;99843.34;;;28.91
62611;BMP280;48683;48.084;17.272;2022-08-27T08:46:44;99847.81;;;28.75
62611;BMP280;48683;48.084;17.272;2022-08-27T08:49:33;99850.06;;;28.95
62611;BMP280;48683;48.084;17.272;2022-08-27T08:52:25;99854.03;;;29.00
62611;BMP280;48683;48.084;17.272;2022-08-27T08:54:59;99844.28;;;29.17
62611;BMP280;48683;48.084;17.272;2022-08-27T08:57:30;99846.66;;;29.27
62611;BMP280;48683;48.084;17.272;2022-08-27T09:00:06;99837.91;;;29.22
62611;BMP280;48683;48.084;17.272;2022-08-27T09:02:36;99851.44;;;29.26
62611;BMP280;48683;48.084;17.272;2022-08-27T09:05:04;99842.53;;;29.14
62611;BMP280;48683;48.084;17.272;2022-08-27T09:07:43;99843.69;;;29.06
62611;BMP280;48683;48.084;17.272;2022-08-27T09:10:44;99844.94;;;29.05
62611;BMP280;48683;48.084;17.272;2022-08-27T09:13:20;99833.00;;;29.15
62611;BMP280;48683;48.084;17.272;2022-08-27T09:15:48;99839.06;;;29.14
62611;BMP280;48683;48.084;17.272;2022-08-27T09:18:14;99836.44;;;29.21
62611;BMP280;48683;48.084;17.272;2022-08-27T09:20:42;99828.84;;;29.46
62611;BMP280;48683;48.084;17.272;2022-08-27T09:23:10;99833.97;;;29.74
62611;BMP280;48683;48.084;17.272;2022-08-27T09:25:41;99832.31;;;29.84
62611;BMP280;48683;48.084;17.272;2022-08-27T09:28:16;99823.25;;;30.02
62611;BMP280;48683;48.084;17.272;2022-08-27T09:31:04;99832.41;;;30.24
62611;BMP280;48683;48.084;17.272;2022-08-27T09:33:29;99826.78;;;30.16
62611;BMP280;48683;48.084;17.272;2022-08-27T09:35:55;99827.94;;;30.07
62611;BMP280;48683;48.084;17.272;2022-08-27T09:38:30;99837.50;;;30.06
62611;BMP280;48683;48.084;17.272;2022-08-27T09:40:59;99835.53;;;30.33
62611;BMP280;48683;48.084;17.272;2022-08-27T09:43:27;99841.78;;;30.21
62611;BMP280;48683;48.084;17.272;2022-08-27T09:46:16;99833.47;;;30.07
62611;BMP280;48683;48.084;17.272;2022-08-27T09:48:42;99824.78;;;29.66
62611;BMP280;48683;48.084;17.272;2022-08-27T09:51:11;99835.47;;;29.75
62611;BMP280;48683;48.084;17.272;2022-08-27T09:53:59;99824.25;;;29.86
62611;BMP280;48683;48.084;17.272;2022-08-27T09:56:28;99826.53;;;30.01
62611;BMP280;48683;48.084;17.272;2022-08-27T09:59:00;99826.16;;;29.59
62611;BMP280;48683;48.084;17.272;2022-08-27T10:01:29;99827.25;;;29.69
62611;BMP280;48683;48.084;17.272;2022-08-27T10:04:07;99835.22;;;29.73
62611;BMP280;48683;48.084;17.272;2022-08-27T10:06:33;99832.59;;;29.81
62611;BMP280;48683;48.084;17.272;2022-08-27T10:09:31;99825.66;;;29.93
62611;BMP280;48683;48.084;17.272;2022-08-27T10:12:11;99823.88;;;30.08
62611;BMP280;48683;48.084;17.272;2022-08-27T10:14:42;99835.63;;;30.28
62611;BMP280;48683;48.084;17.272;2022-08-27T10:20:22;99830.50;;;30.32
62611;BMP280;48683;48.084;17.272;2022-08-27T10:23:26;99824.66;;;30.22
62611;BMP280;48683;48.084;17.272;2022-08-27T10:26:18;99823.72;;;30.33
62611;BMP280;48683;48.084;17.272;2022-08-27T10:31:55;99819.97;;;30.17
62611;BMP280;48683;48.084;17.272;2022-08-27T10:37:20;99816.38;;;30.35
62611;BMP280;48683;48.084;17.272;2022-08-27T10:42:38;99819.78;;;30.41
62611;BMP280;48683;48.084;17.272;2022-08-27T10:45:15;99815.78;;;30.69
62611;BMP280;48683;48.084;17.272;2022-08-27T10:50:25;99816.94;;;30.47
62611;BMP280;48683;48.084;17.272;2022-08-27T10:53:06;99813.97;;;30.58
62611;BMP280;48683;48.084;17.272;2022-08-27T10:55:42;99818.09;;;30.38
62611;BMP280;48683;48.084;17.272;2022-08-27T10:58:25;99814.50;;;30.56
62611;BMP280;48683;48.084;17.272;2022-08-27T11:03:53;99814.19;;;30.73
62611;BMP280;48683;48.084;17.272;2022-08-27T11:08:50;99814.28;;;30.68
62611;BMP280;48683;48.084;17.272;2022-08-27T11:13:51;99805.88;;;30.73
62611;BMP280;48683;48.084;17.272;2022-08-27T11:16:24;99806.50;;;30.79
62611;BMP280;48683;48.084;17.272;2022-08-27T11:19:13;99798.00;;;30.77
62611;BMP280;48683;48.084;17.272;2022-08-27T11:24:35;99788.75;;;31.22
62611;BMP280;48683;48.084;17.272;2022-08-27T11:27:05;99796.47;;;31.16
62611;BMP280;48683;48.084;17.272;2022-08-27T11:29:37;99792.00;;;31.13
62611;BMP280;48683;48.084;17.272;2022-08-27T11:32:12;99789.81;;;31.32
62611;BMP280;48683;48.084;17.272;2022-08-27T11:34:45;99781.72;;;31.21
62611;BMP280;48683;48.084;17.272;2022-08-27T11:38:02;99778.78;;;31.39
62611;BMP280;48683;48.084;17.272;2022-08-27T11:40:35;99775.75;;;31.71
62611;BMP280;48683;48.084;17.272;2022-08-27T11:43:08;99772.28;;;31.71
62611;BMP280;48683;48.084;17.272;2022-08-27T11:45:49;99777.66;;;31.76
62611;BMP280;48683;48.084;17.272;2022-08-27T11:48:28;99765.56;;;31.66
62611;BMP280;48683;48.084;17.272;2022-08-27T11:53:25;99768.19;;;31.72
62611;BMP280;48683;48.084;17.272;2022-08-27T11:55:51;99761.47;;;31.46
62611;BMP280;48683;48.084;17.272;2022-08-27T12:00:43;99771.03;;;32.00
62611;BMP280;48683;48.084;17.272;2022-08-27T12:11:27;99764.81;;;32.07
62611;BMP280;48683;48.084;17.272;2022-08-27T12:16:44;99757.34;;;32.59
62611;BMP280;48683;48.084;17.272;2022-08-27T12:19:20;99755.38;;;32.67
62611;BMP280;48683;48.084;17.272;2022-08-27T12:24:22;99757.31;;;32.51
62611;BMP280;48683;48.084;17.272;2022-08-27T12:26:56;99769.13;;;32.72
62611;BMP280;48683;48.084;17.272;2022-08-27T12:35:15;99761.53;;;32.80
62611;BMP280;48683;48.084;17.272;2022-08-27T12:37:50;99755.19;;;32.65
62611;BMP280;48683;48.084;17.272;2022-08-27T12:40:28;99753.44;;;32.90
62611;BMP280;48683;48.084;17.272;2022-08-27T12:43:24;99745.47;;;32.86
62611;BMP280;48683;48.084;17.272;2022-08-27T12:45:58;99745.28;;;32.92
62611;BMP280;48683;48.084;17.272;2022-08-27T12:48:30;99738.47;;;33.01
62611;BMP280;48683;48.084;17.272;2022-08-27T12:50:59;99742.88;;;32.96
62611;BMP280;48683;48.084;17.272;2022-08-27T13:04:29;99733.84;;;33.03
62611;BMP280;48683;48.084;17.272;2022-08-27T13:06:55;99736.13;;;32.69
62611;BMP280;48683;48.084;17.272;2022-08-27T13:09:40;99728.28;;;32.60
62611;BMP280;48683;48.084;17.272;2022-08-27T13:12:14;99736.63;;;32.60
62611;BMP280;48683;48.084;17.272;2022-08-27T13:14:40;99725.25;;;32.78
62611;BMP280;48683;48.084;17.272;2022-08-27T13:17:07;99725.25;;;32.78
62611;BMP280;48683;48.084;17.272;2022-08-27T13:20:03;99716.78;;;32.91
62611;BMP280;48683;48.084;17.272;2022-08-27T13:22:30;99729.34;;;32.92
62611;BMP280;48683;48.084;17.272;2022-08-27T13:24:57;99720.47;;;32.86
62611;BMP280;48683;48.084;17.272;2022-08-27T13:27:33;99715.78;;;32.74
62611;BMP280;48683;48.084;17.272;2022-08-27T13:30:07;99715.91;;;32.61
62611;BMP280;48683;48.084;17.272;2022-08-27T13:32:35;99710.94;;;32.31
62611;BMP280;48683;48.084;17.272;2022-08-27T13:35:00;99694.28;;;32.31
62611;BMP280;48683;48.084;17.272;2022-08-27T13:37:46;99711.88;;;32.33
62611;BMP280;48683;48.084;17.272;2022-08-27T13:40:33;99714.19;;;32.22
62611;BMP280;48683;48.084;17.272;2022-08-27T13:43:08;99720.16;;;32.26
62611;BMP280;48683;48.084;17.272;2022-08-27T13:45:34;99711.09;;;32.25
62611;BMP280;48683;48.084;17.272;2022-08-27T13:48:01;99712.41;;;32.32
62611;BMP280;48683;48.084;17.272;2022-08-27T13:50:32;99707.72;;;32.55
62611;BMP280;48683;48.084;17.272;2022-08-27T13:53:08;99709.06;;;32.62
62611;BMP280;48683;48.084;17.272;2022-08-27T13:55:53;99705.88;;;32.58
62611;BMP280;48683;48.084;17.272;2022-08-27T13:58:25;99711.22;;;32.48
62611;BMP280;48683;48.084;17.272;2022-08-27T14:00:52;99714.16;;;32.50
62611;BMP280;48683;48.084;17.272;2022-08-27T14:03:32;99722.78;;;32.31
62611;BMP280;48683;48.084;17.272;2022-08-27T14:05:59;99726.44;;;32.26
62611;BMP280;48683;48.084;17.272;2022-08-27T14:08:31;99718.84;;;32.27
62611;BMP280;48683;48.084;17.272;2022-08-27T14:11:04;99719.16;;;32.16
62611;BMP280;48683;48.084;17.272;2022-08-27T14:13:40;99714.72;;;32.13
62611;BMP280;48683;48.084;17.272;2022-08-27T14:16:26;99720.63;;;32.09
62611;BMP280;48683;48.084;17.272;2022-08-27T14:21:33;99719.59;;;31.99
62611;BMP280;48683;48.084;17.272;2022-08-27T14:23:59;99721.03;;;31.92
62611;BMP280;48683;48.084;17.272;2022-08-27T14:26:25;99721.16;;;31.87
62611;BMP280;48683;48.084;17.272;2022-08-27T14:28:51;99725.41;;;31.88
62611;BMP280;48683;48.084;17.272;2022-08-27T14:31:16;99727.44;;;31.87
62611;BMP280;48683;48.084;17.272;2022-08-27T14:33:42;99727.06;;;31.83
62611;BMP280;48683;48.084;17.272;2022-08-27T14:36:09;99726.47;;;31.77
62611;BMP280;48683;48.084;17.272;2022-08-27T14:38:37;99727.22;;;31.78
62611;BMP280;48683;48.084;17.272;2022-08-27T14:41:03;99720.91;;;31.77
62611;BMP280;48683;48.084;17.272;2022-08-27T14:43:28;99722.19;;;31.76
62611;BMP280;48683;48.084;17.272;2022-08-27T14:45:54;99719.56;;;31.71
62611;BMP280;48683;48.084;17.272;2022-08-27T14:48:24;99717.88;;;31.68
62611;BMP280;48683;48.084;17.272;2022-08-27T14:50:51;99715.84;;;31.68
62611;BMP280;48683;48.084;17.272;2022-08-27T14:53:17;99713.06;;;31.68
62611;BMP280;48683;48.084;17.272;2022-08-27T14:55:44;99715.09;;;31.68
62611;BMP280;48683;48.084;17.272;2022-08-27T14:58:09;99711.31;;;31.58
62611;BMP280;48683;48.084;17.272;2022-08-27T15:00:35;99713.16;;;31.55
62611;BMP280;48683;48.084;17.272;2022-08-27T15:03:00;99711.44;;;31.31
62611;BMP280;48683;48.084;17.272;2022-08-27T15:05:26;99710.06;;;31.25
62611;BMP280;48683;48.084;17.272;2022-08-27T15:07:52;99709.16;;;31.09
62611;BMP280;48683;48.084;17.272;2022-08-27T15:10:22;99707.69;;;30.95
62611;BMP280;48683;48.084;17.272;2022-08-27T15:12:48;99709.03;;;30.81
62611;BMP280;48683;48.084;17.272;2022-08-27T15:15:14;99706.09;;;30.66